Airfield :
LOGIN :

Register | Disclaimer

   EN    FR    IT 

 










Legend :    VFR   Marginal VFR   IFR   Intensive IFR   Very Intensive IFR
Visi :
Ceiling :
>= 8 km
>= 3000ft
5 to 8 km
1000 to 3000 ft
1500m to 5 km
500 to 1000 ft
800 to 1500m
200 to 500 ft
< 800m
< 200 ft
Symbols :   Thunderstorms  Fog  Heavy snow  Heavy precipitations  Wind > 20 kt
SIGMETs :     Misc.  Thunderstorms  Icing  Turbulence  Mountain Waves  Volcanic Ashes






- Airport Elevation : 464 ft
- IATA code : EVX


LFOE - Evreux

CURRENT METAR :
  • 250900Z AUTO 24004KT 200V280 9999 OVC007 15/14 Q1020 NOSIG

EXPIRED METARs :
  • 250830Z AUTO 21005KT 9999 OVC007 15/14 Q1020 NOSIG
  • 250800Z AUTO 21006KT 7000 BKN010 OVC014 14/13 Q1020 TEMPO 4000 -RADZ
  • 250730Z AUTO 21006KT 8000 BKN012 OVC018 14/12 Q1020 TEMPO 4000 -RADZ
  • 250700Z AUTO 20005KT 9999 SCT009 BKN017 OVC026 14/12 Q1020 TEMPO 4000 -RADZ BKN010 OVC020
  • 250630Z AUTO 20006KT 9999 OVC008 14/11 Q1020 TEMPO 4000 -RADZ BKN010 OVC020

TAF TAF LFOE
Valid from the 25 at 09:00 until the 26 at 09:00 UTC


250800Z 2509/2609 22007KT 8000 OVC012
TEMPO 2509/2511 -RADZ OVC008
BECMG 2511/2512 4000 -RA OVC020
TEMPO 2511/2517 30010KT
TEMPO 2515/2523 4000 -SHRA BKN020TCU
BECMG 2602/2604 OVC004
BECMG 2606/2608 8000 NSW



MET'MAP, your aeronautical weather chart ! - Copyright ORBIFLY December 2007 - Disclaimer

ORBIFLY MET'MAP TEAM :

Programming & Development : Alexandra Zaïnal
Concept & original design : Baudouin d'Aumeries
Assistance for programming : Marc-Olivier Méhu
Technical & hardware support : Manuel Goepfert

Contact : metmap@orbifly.com




SOURCES & CREDITS :

   NOAA